Terminal Aerodrome Forecast
Issued by NWS Blacksburg, VA

Home | Current Version | Previous Version | Text Only | Print | Product List | Glossary On
Versions: 1 2 3 4 5 6 7 8 9 10 11 12 13 14 15 16 17 18 19 20 21 22 23 24 25 26 27 28 29 30 31 32
000
FTUS41 KRNK 270525
TAFBLF
TAF
KBLF 270525Z 2706/2806 26005KT P6SM -RA OVC022
     FM270800 28004KT 6SM -SHRA OVC010
     FM270900 VRB03KT 4SM -SHRA BR OVC008
      TEMPO 2711/2712 2SM -SHRA BR OVC003
     FM271300 31007KT P6SM VCSH OVC015
     FM271600 28010G18KT P6SM BKN040=

USA.gov is the U.S. government's official web portal to all federal, state and local government web resources and services.